sensor_id;sensor_type;location;lat;lon;timestamp;temperature;humidity
10175;DHT22;18221;38.704;0.152;2022-07-23T00:08:37;26.00;99.90
10175;DHT22;18221;38.704;0.152;2022-07-23T00:11:06;26.00;99.90
10175;DHT22;18221;38.704;0.152;2022-07-23T00:13:34;26.00;99.90
10175;DHT22;18221;38.704;0.152;2022-07-23T00:16:02;26.10;99.90
10175;DHT22;18221;38.704;0.152;2022-07-23T00:18:31;26.10;99.90
10175;DHT22;18221;38.704;0.152;2022-07-23T00:20:59;26.00;99.90
10175;DHT22;18221;38.704;0.152;2022-07-23T00:23:27;26.00;99.90
10175;DHT22;18221;38.704;0.152;2022-07-23T00:25:58;26.00;99.90
10175;DHT22;18221;38.704;0.152;2022-07-23T00:28:26;26.00;99.90
10175;DHT22;18221;38.704;0.152;2022-07-23T00:30:53;26.00;99.90
10175;DHT22;18221;38.704;0.152;2022-07-23T00:33:21;25.90;99.90
10175;DHT22;18221;38.704;0.152;2022-07-23T00:35:49;25.90;99.90
10175;DHT22;18221;38.704;0.152;2022-07-23T00:38:17;25.90;99.90
10175;DHT22;18221;38.704;0.152;2022-07-23T00:40:45;25.80;99.90
10175;DHT22;18221;38.704;0.152;2022-07-23T00:43:14;25.90;99.90
10175;DHT22;18221;38.704;0.152;2022-07-23T00:45:42;25.90;99.90
10175;DHT22;18221;38.704;0.152;2022-07-23T00:48:10;25.80;99.90
10175;DHT22;18221;38.704;0.152;2022-07-23T00:50:38;25.90;99.90
10175;DHT22;18221;38.704;0.152;2022-07-23T00:53:06;25.80;99.90
10175;DHT22;18221;38.704;0.152;2022-07-23T00:55:34;25.80;99.90
10175;DHT22;18221;38.704;0.152;2022-07-23T00:58:02;25.80;99.90
10175;DHT22;18221;38.704;0.152;2022-07-23T01:00:32;25.80;99.90
10175;DHT22;18221;38.704;0.152;2022-07-23T01:03:00;25.80;99.90
10175;DHT22;18221;38.704;0.152;2022-07-23T01:05:28;25.80;99.90
10175;DHT22;18221;38.704;0.152;2022-07-23T01:07:56;25.80;99.90
10175;DHT22;18221;38.704;0.152;2022-07-23T01:10:25;25.80;99.90
10175;DHT22;18221;38.704;0.152;2022-07-23T01:13:00;25.70;99.90
10175;DHT22;18221;38.704;0.152;2022-07-23T01:15:30;25.70;99.90
10175;DHT22;18221;38.704;0.152;2022-07-23T01:18:00;25.70;99.90
10175;DHT22;18221;38.704;0.152;2022-07-23T01:20:28;25.60;99.90
10175;DHT22;18221;38.704;0.152;2022-07-23T01:22:57;25.60;99.90
10175;DHT22;18221;38.704;0.152;2022-07-23T01:25:25;25.60;99.90
10175;DHT22;18221;38.704;0.152;2022-07-23T01:27:53;25.60;99.90
10175;DHT22;18221;38.704;0.152;2022-07-23T01:30:22;25.60;99.90
10175;DHT22;18221;38.704;0.152;2022-07-23T01:32:49;25.60;99.90
10175;DHT22;18221;38.704;0.152;2022-07-23T01:35:17;25.60;99.90
10175;DHT22;18221;38.704;0.152;2022-07-23T01:37:45;25.50;99.90
10175;DHT22;18221;38.704;0.152;2022-07-23T01:40:14;25.50;99.90
10175;DHT22;18221;38.704;0.152;2022-07-23T01:42:43;25.50;99.90
10175;DHT22;18221;38.704;0.152;2022-07-23T01:45:11;25.40;99.90
10175;DHT22;18221;38.704;0.152;2022-07-23T01:47:38;25.40;99.90
10175;DHT22;18221;38.704;0.152;2022-07-23T01:50:07;25.40;99.90
10175;DHT22;18221;38.704;0.152;2022-07-23T01:52:36;25.40;99.90
10175;DHT22;18221;38.704;0.152;2022-07-23T01:55:04;25.30;99.90
10175;DHT22;18221;38.704;0.152;2022-07-23T01:57:35;25.30;99.90
10175;DHT22;18221;38.704;0.152;2022-07-23T02:00:04;25.40;99.90
10175;DHT22;18221;38.704;0.152;2022-07-23T02:02:32;25.30;99.90
10175;DHT22;18221;38.704;0.152;2022-07-23T02:05:00;25.30;99.90
10175;DHT22;18221;38.704;0.152;2022-07-23T02:07:28;25.30;99.90
10175;DHT22;18221;38.704;0.152;2022-07-23T02:09:56;25.40;99.90
10175;DHT22;18221;38.704;0.152;2022-07-23T02:12:23;25.30;99.90
10175;DHT22;18221;38.704;0.152;2022-07-23T02:14:53;25.30;99.90
10175;DHT22;18221;38.704;0.152;2022-07-23T02:17:21;25.30;99.90
10175;DHT22;18221;38.704;0.152;2022-07-23T02:19:48;25.30;99.90
10175;DHT22;18221;38.704;0.152;2022-07-23T02:22:16;25.30;99.90
10175;DHT22;18221;38.704;0.152;2022-07-23T02:24:44;25.30;99.90
10175;DHT22;18221;38.704;0.152;2022-07-23T02:27:12;25.30;99.90
10175;DHT22;18221;38.704;0.152;2022-07-23T02:29:40;25.30;99.90
10175;DHT22;18221;38.704;0.152;2022-07-23T02:32:09;25.30;99.90
10175;DHT22;18221;38.704;0.152;2022-07-23T02:34:37;25.20;99.90
10175;DHT22;18221;38.704;0.152;2022-07-23T02:37:05;25.20;99.90
10175;DHT22;18221;38.704;0.152;2022-07-23T02:39:34;25.20;99.90
10175;DHT22;18221;38.704;0.152;2022-07-23T02:42:03;25.20;99.90
10175;DHT22;18221;38.704;0.152;2022-07-23T02:44:31;25.20;99.90
10175;DHT22;18221;38.704;0.152;2022-07-23T02:46:59;25.20;99.90
10175;DHT22;18221;38.704;0.152;2022-07-23T02:49:28;25.10;99.90
10175;DHT22;18221;38.704;0.152;2022-07-23T02:51:56;25.10;99.90
10175;DHT22;18221;38.704;0.152;2022-07-23T02:54:24;25.10;99.90
10175;DHT22;18221;38.704;0.152;2022-07-23T02:56:52;25.10;99.90
10175;DHT22;18221;38.704;0.152;2022-07-23T02:59:20;25.10;99.90
10175;DHT22;18221;38.704;0.152;2022-07-23T03:01:48;25.10;99.90
10175;DHT22;18221;38.704;0.152;2022-07-23T03:04:16;25.10;99.90
10175;DHT22;18221;38.704;0.152;2022-07-23T03:06:45;25.10;99.90
10175;DHT22;18221;38.704;0.152;2022-07-23T03:09:13;25.00;99.90
10175;DHT22;18221;38.704;0.152;2022-07-23T03:11:41;25.00;99.90
10175;DHT22;18221;38.704;0.152;2022-07-23T03:14:09;25.00;99.90
10175;DHT22;18221;38.704;0.152;2022-07-23T03:16:39;25.00;99.90
10175;DHT22;18221;38.704;0.152;2022-07-23T03:19:07;25.00;99.90
10175;DHT22;18221;38.704;0.152;2022-07-23T03:21:34;24.90;99.90
10175;DHT22;18221;38.704;0.152;2022-07-23T03:24:08;24.70;99.90
10175;DHT22;18221;38.704;0.152;2022-07-23T03:26:36;24.90;99.90
10175;DHT22;18221;38.704;0.152;2022-07-23T03:29:05;24.90;99.90
10175;DHT22;18221;38.704;0.152;2022-07-23T03:31:33;24.80;99.90
10175;DHT22;18221;38.704;0.152;2022-07-23T03:34:01;24.80;99.90
10175;DHT22;18221;38.704;0.152;2022-07-23T03:36:29;24.80;99.90
10175;DHT22;18221;38.704;0.152;2022-07-23T03:38:57;24.80;99.90
10175;DHT22;18221;38.704;0.152;2022-07-23T03:41:26;24.80;99.90
10175;DHT22;18221;38.704;0.152;2022-07-23T03:43:54;24.80;99.90
10175;DHT22;18221;38.704;0.152;2022-07-23T03:46:22;24.90;99.90
10175;DHT22;18221;38.704;0.152;2022-07-23T03:48:50;24.80;99.90
10175;DHT22;18221;38.704;0.152;2022-07-23T03:51:17;24.80;99.90
10175;DHT22;18221;38.704;0.152;2022-07-23T03:53:45;24.80;99.90
10175;DHT22;18221;38.704;0.152;2022-07-23T03:56:15;24.80;99.90
10175;DHT22;18221;38.704;0.152;2022-07-23T03:58:44;25.70;99.90
10175;DHT22;18221;38.704;0.152;2022-07-23T04:01:12;24.80;99.90
10175;DHT22;18221;38.704;0.152;2022-07-23T04:03:40;24.70;99.90
10175;DHT22;18221;38.704;0.152;2022-07-23T04:06:08;24.80;99.90
10175;DHT22;18221;38.704;0.152;2022-07-23T04:08:36;24.80;99.90
10175;DHT22;18221;38.704;0.152;2022-07-23T04:11:04;24.70;99.90
10175;DHT22;18221;38.704;0.152;2022-07-23T04:13:32;24.70;99.90
10175;DHT22;18221;38.704;0.152;2022-07-23T04:16:01;24.70;99.90
10175;DHT22;18221;38.704;0.152;2022-07-23T04:18:29;24.70;99.90
10175;DHT22;18221;38.704;0.152;2022-07-23T04:20:57;24.70;99.90
10175;DHT22;18221;38.704;0.152;2022-07-23T04:23:25;24.70;99.90
10175;DHT22;18221;38.704;0.152;2022-07-23T04:25:53;24.70;99.90
10175;DHT22;18221;38.704;0.152;2022-07-23T04:28:21;24.70;99.90
10175;DHT22;18221;38.704;0.152;2022-07-23T04:30:49;24.70;99.90
10175;DHT22;18221;38.704;0.152;2022-07-23T04:33:18;24.80;99.90
10175;DHT22;18221;38.704;0.152;2022-07-23T04:35:46;24.80;99.90
10175;DHT22;18221;38.704;0.152;2022-07-23T04:38:14;24.80;99.90
10175;DHT22;18221;38.704;0.152;2022-07-23T04:40:42;24.80;99.90
10175;DHT22;18221;38.704;0.152;2022-07-23T04:43:10;24.90;99.90
10175;DHT22;18221;38.704;0.152;2022-07-23T04:45:38;24.90;99.90
10175;DHT22;18221;38.704;0.152;2022-07-23T04:48:06;24.90;99.90
10175;DHT22;18221;38.704;0.152;2022-07-23T04:50:35;24.90;99.90
10175;DHT22;18221;38.704;0.152;2022-07-23T04:53:03;24.90;99.90
10175;DHT22;18221;38.704;0.152;2022-07-23T04:55:31;24.90;99.90
10175;DHT22;18221;38.704;0.152;2022-07-23T04:57:59;24.90;99.90
10175;DHT22;18221;38.704;0.152;2022-07-23T05:00:27;24.90;99.90
10175;DHT22;18221;38.704;0.152;2022-07-23T05:02:55;24.90;99.90
10175;DHT22;18221;38.704;0.152;2022-07-23T05:05:23;24.20;99.90
10175;DHT22;18221;38.704;0.152;2022-07-23T05:07:52;24.90;99.90
10175;DHT22;18221;38.704;0.152;2022-07-23T05:10:20;24.90;99.90
10175;DHT22;18221;38.704;0.152;2022-07-23T05:12:48;24.90;99.90
10175;DHT22;18221;38.704;0.152;2022-07-23T05:15:16;24.90;99.90
10175;DHT22;18221;38.704;0.152;2022-07-23T05:17:43;24.90;99.90
10175;DHT22;18221;38.704;0.152;2022-07-23T05:20:11;24.90;99.90
10175;DHT22;18221;38.704;0.152;2022-07-23T05:22:40;24.90;99.90
10175;DHT22;18221;38.704;0.152;2022-07-23T05:25:10;24.90;99.90
10175;DHT22;18221;38.704;0.152;2022-07-23T05:27:38;24.90;99.90
10175;DHT22;18221;38.704;0.152;2022-07-23T05:30:07;24.90;99.90
10175;DHT22;18221;38.704;0.152;2022-07-23T05:32:35;24.90;99.90
10175;DHT22;18221;38.704;0.152;2022-07-23T05:35:04;24.90;99.90
10175;DHT22;18221;38.704;0.152;2022-07-23T05:37:33;24.90;99.90
10175;DHT22;18221;38.704;0.152;2022-07-23T05:40:02;24.90;99.90
10175;DHT22;18221;38.704;0.152;2022-07-23T05:42:33;24.90;99.90
10175;DHT22;18221;38.704;0.152;2022-07-23T05:45:01;24.80;99.90
10175;DHT22;18221;38.704;0.152;2022-07-23T05:47:39;24.90;99.90
10175;DHT22;18221;38.704;0.152;2022-07-23T05:50:09;24.80;99.90
10175;DHT22;18221;38.704;0.152;2022-07-23T05:52:38;24.80;99.90
10175;DHT22;18221;38.704;0.152;2022-07-23T05:55:06;24.80;99.90
10175;DHT22;18221;38.704;0.152;2022-07-23T05:57:37;24.80;99.90
10175;DHT22;18221;38.704;0.152;2022-07-23T06:00:07;24.80;99.90
10175;DHT22;18221;38.704;0.152;2022-07-23T06:02:38;24.80;99.90
10175;DHT22;18221;38.704;0.152;2022-07-23T06:05:07;24.80;99.90
10175;DHT22;18221;38.704;0.152;2022-07-23T06:07:35;24.80;99.90
10175;DHT22;18221;38.704;0.152;2022-07-23T06:10:04;24.90;99.90
10175;DHT22;18221;38.704;0.152;2022-07-23T06:12:32;24.90;99.90
10175;DHT22;18221;38.704;0.152;2022-07-23T06:15:02;24.90;99.90
10175;DHT22;18221;38.704;0.152;2022-07-23T06:17:30;24.90;99.90
10175;DHT22;18221;38.704;0.152;2022-07-23T06:19:58;25.00;99.90
10175;DHT22;18221;38.704;0.152;2022-07-23T06:22:26;25.10;99.90
10175;DHT22;18221;38.704;0.152;2022-07-23T06:24:54;25.10;99.90
10175;DHT22;18221;38.704;0.152;2022-07-23T06:27:21;25.30;99.90
10175;DHT22;18221;38.704;0.152;2022-07-23T06:29:49;25.40;99.90
10175;DHT22;18221;38.704;0.152;2022-07-23T06:32:19;25.50;99.90
10175;DHT22;18221;38.704;0.152;2022-07-23T06:34:47;25.60;99.90
10175;DHT22;18221;38.704;0.152;2022-07-23T06:37:15;25.60;99.90
10175;DHT22;18221;38.704;0.152;2022-07-23T06:39:43;25.70;99.90
10175;DHT22;18221;38.704;0.152;2022-07-23T06:42:11;25.80;99.90
10175;DHT22;18221;38.704;0.152;2022-07-23T06:44:39;25.70;99.90
10175;DHT22;18221;38.704;0.152;2022-07-23T06:47:07;25.80;99.90
10175;DHT22;18221;38.704;0.152;2022-07-23T06:49:36;25.80;99.90
10175;DHT22;18221;38.704;0.152;2022-07-23T06:52:06;25.80;99.90
10175;DHT22;18221;38.704;0.152;2022-07-23T06:54:35;25.90;99.90
10175;DHT22;18221;38.704;0.152;2022-07-23T06:57:03;25.90;99.90
10175;DHT22;18221;38.704;0.152;2022-07-23T06:59:31;26.00;99.90
10175;DHT22;18221;38.704;0.152;2022-07-23T07:01:58;26.00;99.90
10175;DHT22;18221;38.704;0.152;2022-07-23T07:04:26;26.00;99.90
10175;DHT22;18221;38.704;0.152;2022-07-23T07:06:56;26.00;99.90
10175;DHT22;18221;38.704;0.152;2022-07-23T07:09:24;26.10;99.90
10175;DHT22;18221;38.704;0.152;2022-07-23T07:11:52;26.10;99.90
10175;DHT22;18221;38.704;0.152;2022-07-23T07:14:20;26.20;99.90
10175;DHT22;18221;38.704;0.152;2022-07-23T07:16:48;26.20;99.90
10175;DHT22;18221;38.704;0.152;2022-07-23T07:19:16;26.30;99.90
10175;DHT22;18221;38.704;0.152;2022-07-23T07:21:44;26.40;99.90
10175;DHT22;18221;38.704;0.152;2022-07-23T07:24:13;26.40;99.90
10175;DHT22;18221;38.704;0.152;2022-07-23T07:26:41;26.50;99.90
10175;DHT22;18221;38.704;0.152;2022-07-23T07:29:09;26.60;99.90
10175;DHT22;18221;38.704;0.152;2022-07-23T07:31:37;26.60;99.90
10175;DHT22;18221;38.704;0.152;2022-07-23T07:34:05;26.80;99.90
10175;DHT22;18221;38.704;0.152;2022-07-23T07:36:32;26.80;99.90
10175;DHT22;18221;38.704;0.152;2022-07-23T07:39:03;26.80;99.90
10175;DHT22;18221;38.704;0.152;2022-07-23T07:41:32;26.90;99.90
10175;DHT22;18221;38.704;0.152;2022-07-23T07:44:00;27.10;99.90
10175;DHT22;18221;38.704;0.152;2022-07-23T07:46:28;27.10;99.90
10175;DHT22;18221;38.704;0.152;2022-07-23T07:48:56;27.30;99.90
10175;DHT22;18221;38.704;0.152;2022-07-23T07:51:24;27.40;99.90
10175;DHT22;18221;38.704;0.152;2022-07-23T07:53:52;27.60;99.90
10175;DHT22;18221;38.704;0.152;2022-07-23T07:56:20;27.90;99.90
10175;DHT22;18221;38.704;0.152;2022-07-23T07:58:49;28.00;99.90
10175;DHT22;18221;38.704;0.152;2022-07-23T08:01:17;28.30;99.90
10175;DHT22;18221;38.704;0.152;2022-07-23T08:03:46;28.60;99.90
10175;DHT22;18221;38.704;0.152;2022-07-23T08:06:14;28.90;99.90
10175;DHT22;18221;38.704;0.152;2022-07-23T08:08:42;29.20;99.90
10175;DHT22;18221;38.704;0.152;2022-07-23T08:11:10;29.30;99.90
10175;DHT22;18221;38.704;0.152;2022-07-23T08:13:37;29.50;99.90
10175;DHT22;18221;38.704;0.152;2022-07-23T08:16:07;29.60;99.90
10175;DHT22;18221;38.704;0.152;2022-07-23T08:18:35;29.50;99.90
10175;DHT22;18221;38.704;0.152;2022-07-23T08:21:03;29.50;99.90
10175;DHT22;18221;38.704;0.152;2022-07-23T08:23:31;29.50;99.90
10175;DHT22;18221;38.704;0.152;2022-07-23T08:26:00;29.50;99.90
10175;DHT22;18221;38.704;0.152;2022-07-23T08:28:28;29.70;99.90
10175;DHT22;18221;38.704;0.152;2022-07-23T08:30:59;29.80;99.90
10175;DHT22;18221;38.704;0.152;2022-07-23T08:33:28;29.90;99.90
10175;DHT22;18221;38.704;0.152;2022-07-23T08:35:56;30.20;99.90
10175;DHT22;18221;38.704;0.152;2022-07-23T08:38:25;30.20;99.90
10175;DHT22;18221;38.704;0.152;2022-07-23T08:40:55;30.30;99.90
10175;DHT22;18221;38.704;0.152;2022-07-23T08:43:25;30.50;99.90
10175;DHT22;18221;38.704;0.152;2022-07-23T08:45:58;30.20;99.90
10175;DHT22;18221;38.704;0.152;2022-07-23T08:48:30;30.50;99.90
10175;DHT22;18221;38.704;0.152;2022-07-23T08:51:00;30.50;99.90
10175;DHT22;18221;38.704;0.152;2022-07-23T08:53:31;30.50;99.90
10175;DHT22;18221;38.704;0.152;2022-07-23T08:56:02;30.30;99.90
10175;DHT22;18221;38.704;0.152;2022-07-23T08:58:31;30.10;99.90
10175;DHT22;18221;38.704;0.152;2022-07-23T09:01:00;30.00;99.90
10175;DHT22;18221;38.704;0.152;2022-07-23T09:03:31;30.00;99.90
10175;DHT22;18221;38.704;0.152;2022-07-23T09:06:01;30.00;99.90
10175;DHT22;18221;38.704;0.152;2022-07-23T09:08:35;29.80;99.90
10175;DHT22;18221;38.704;0.152;2022-07-23T09:11:05;29.80;99.90
10175;DHT22;18221;38.704;0.152;2022-07-23T09:13:36;29.70;99.90
10175;DHT22;18221;38.704;0.152;2022-07-23T09:16:07;29.60;99.90
10175;DHT22;18221;38.704;0.152;2022-07-23T09:18:45;29.60;99.90
10175;DHT22;18221;38.704;0.152;2022-07-23T09:21:24;29.70;99.90
10175;DHT22;18221;38.704;0.152;2022-07-23T09:23:57;29.70;99.90
10175;DHT22;18221;38.704;0.152;2022-07-23T09:26:29;29.80;99.90
10175;DHT22;18221;38.704;0.152;2022-07-23T09:29:03;29.80;99.90
10175;DHT22;18221;38.704;0.152;2022-07-23T09:31:46;29.70;99.90
10175;DHT22;18221;38.704;0.152;2022-07-23T09:34:20;29.70;99.90
10175;DHT22;18221;38.704;0.152;2022-07-23T09:36:50;29.60;99.90
10175;DHT22;18221;38.704;0.152;2022-07-23T09:39:25;29.80;99.90
10175;DHT22;18221;38.704;0.152;2022-07-23T09:41:54;29.80;99.90
10175;DHT22;18221;38.704;0.152;2022-07-23T09:44:23;29.80;99.90
10175;DHT22;18221;38.704;0.152;2022-07-23T09:46:58;29.70;99.90
10175;DHT22;18221;38.704;0.152;2022-07-23T09:49:29;29.60;99.90
10175;DHT22;18221;38.704;0.152;2022-07-23T09:51:58;29.80;99.90
10175;DHT22;18221;38.704;0.152;2022-07-23T09:54:30;29.80;99.90
10175;DHT22;18221;38.704;0.152;2022-07-23T09:57:03;29.80;99.90
10175;DHT22;18221;38.704;0.152;2022-07-23T09:59:37;30.00;99.90
10175;DHT22;18221;38.704;0.152;2022-07-23T10:02:07;29.90;99.90
10175;DHT22;18221;38.704;0.152;2022-07-23T10:04:38;29.90;99.90
10175;DHT22;18221;38.704;0.152;2022-07-23T10:07:08;30.10;99.90
10175;DHT22;18221;38.704;0.152;2022-07-23T10:09:38;30.10;99.90
10175;DHT22;18221;38.704;0.152;2022-07-23T10:12:11;30.10;99.90
10175;DHT22;18221;38.704;0.152;2022-07-23T10:14:50;30.00;99.90
10175;DHT22;18221;38.704;0.152;2022-07-23T10:17:18;30.00;99.90
10175;DHT22;18221;38.704;0.152;2022-07-23T10:19:47;30.00;99.90
10175;DHT22;18221;38.704;0.152;2022-07-23T10:22:21;30.10;99.90
10175;DHT22;18221;38.704;0.152;2022-07-23T10:25:10;30.10;99.90
10175;DHT22;18221;38.704;0.152;2022-07-23T10:28:20;30.00;99.90
10175;DHT22;18221;38.704;0.152;2022-07-23T10:31:10;29.80;99.90
10175;DHT22;18221;38.704;0.152;2022-07-23T10:33:54;29.80;99.90
10175;DHT22;18221;38.704;0.152;2022-07-23T10:36:42;29.80;99.90
10175;DHT22;18221;38.704;0.152;2022-07-23T10:39:19;29.80;99.90
10175;DHT22;18221;38.704;0.152;2022-07-23T10:41:51;29.70;99.90
10175;DHT22;18221;38.704;0.152;2022-07-23T10:44:20;29.70;99.90
10175;DHT22;18221;38.704;0.152;2022-07-23T10:46:57;29.60;99.90
10175;DHT22;18221;38.704;0.152;2022-07-23T10:49:44;29.60;99.90
10175;DHT22;18221;38.704;0.152;2022-07-23T10:52:24;29.70;99.90
10175;DHT22;18221;38.704;0.152;2022-07-23T10:54:55;29.80;99.90
10175;DHT22;18221;38.704;0.152;2022-07-23T10:57:25;29.90;99.90
10175;DHT22;18221;38.704;0.152;2022-07-23T11:00:20;30.00;99.90
10175;DHT22;18221;38.704;0.152;2022-07-23T11:02:51;30.10;99.90
10175;DHT22;18221;38.704;0.152;2022-07-23T11:05:22;30.10;99.90
10175;DHT22;18221;38.704;0.152;2022-07-23T11:08:16;30.20;99.90
10175;DHT22;18221;38.704;0.152;2022-07-23T11:10:52;30.30;99.90
10175;DHT22;18221;38.704;0.152;2022-07-23T11:13:41;30.30;99.90
10175;DHT22;18221;38.704;0.152;2022-07-23T11:16:17;30.20;99.90
10175;DHT22;18221;38.704;0.152;2022-07-23T11:19:05;30.10;99.90
10175;DHT22;18221;38.704;0.152;2022-07-23T11:21:50;30.20;99.90
10175;DHT22;18221;38.704;0.152;2022-07-23T11:24:24;30.20;99.90
10175;DHT22;18221;38.704;0.152;2022-07-23T11:26:55;30.30;99.90
10175;DHT22;18221;38.704;0.152;2022-07-23T11:29:48;30.30;99.90
10175;DHT22;18221;38.704;0.152;2022-07-23T11:32:28;30.30;99.90
10175;DHT22;18221;38.704;0.152;2022-07-23T11:34:59;30.30;99.90
10175;DHT22;18221;38.704;0.152;2022-07-23T11:37:31;30.30;99.90
10175;DHT22;18221;38.704;0.152;2022-07-23T11:40:08;30.40;99.90
10175;DHT22;18221;38.704;0.152;2022-07-23T11:42:38;30.50;99.90
10175;DHT22;18221;38.704;0.152;2022-07-23T11:45:07;30.50;99.90
10175;DHT22;18221;38.704;0.152;2022-07-23T11:47:36;30.30;99.90
10175;DHT22;18221;38.704;0.152;2022-07-23T11:50:06;30.30;99.90
10175;DHT22;18221;38.704;0.152;2022-07-23T11:52:34;30.40;99.90
10175;DHT22;18221;38.704;0.152;2022-07-23T11:55:06;30.40;99.90
10175;DHT22;18221;38.704;0.152;2022-07-23T11:57:36;30.30;99.90
10175;DHT22;18221;38.704;0.152;2022-07-23T12:00:08;30.30;99.90
10175;DHT22;18221;38.704;0.152;2022-07-23T12:02:38;30.00;99.90
10175;DHT22;18221;38.704;0.152;2022-07-23T12:05:08;30.00;99.90
10175;DHT22;18221;38.704;0.152;2022-07-23T12:07:40;30.10;99.90
10175;DHT22;18221;38.704;0.152;2022-07-23T12:10:14;30.30;99.90
10175;DHT22;18221;38.704;0.152;2022-07-23T12:12:46;30.40;99.90
10175;DHT22;18221;38.704;0.152;2022-07-23T12:15:17;30.30;99.90
10175;DHT22;18221;38.704;0.152;2022-07-23T12:17:48;30.20;99.90
10175;DHT22;18221;38.704;0.152;2022-07-23T12:20:20;30.20;99.90
10175;DHT22;18221;38.704;0.152;2022-07-23T12:22:51;30.20;99.90
10175;DHT22;18221;38.704;0.152;2022-07-23T12:25:24;30.30;99.90
10175;DHT22;18221;38.704;0.152;2022-07-23T12:28:05;30.30;99.90
10175;DHT22;18221;38.704;0.152;2022-07-23T12:30:39;30.40;99.90
10175;DHT22;18221;38.704;0.152;2022-07-23T12:33:09;30.60;99.90
10175;DHT22;18221;38.704;0.152;2022-07-23T12:35:40;30.30;99.90
10175;DHT22;18221;38.704;0.152;2022-07-23T12:38:11;30.30;99.90
10175;DHT22;18221;38.704;0.152;2022-07-23T12:40:45;30.10;99.90
10175;DHT22;18221;38.704;0.152;2022-07-23T12:43:21;30.20;99.90
10175;DHT22;18221;38.704;0.152;2022-07-23T12:45:51;30.20;99.90
10175;DHT22;18221;38.704;0.152;2022-07-23T12:48:22;30.20;99.90
10175;DHT22;18221;38.704;0.152;2022-07-23T12:50:57;30.20;99.90
10175;DHT22;18221;38.704;0.152;2022-07-23T12:53:28;30.30;99.90
10175;DHT22;18221;38.704;0.152;2022-07-23T12:56:02;30.30;99.90
10175;DHT22;18221;38.704;0.152;2022-07-23T12:58:43;30.30;99.90
10175;DHT22;18221;38.704;0.152;2022-07-23T13:01:23;30.20;99.90
10175;DHT22;18221;38.704;0.152;2022-07-23T13:03:58;30.20;99.90
10175;DHT22;18221;38.704;0.152;2022-07-23T13:06:28;30.20;99.90
10175;DHT22;18221;38.704;0.152;2022-07-23T13:08:57;30.20;99.90
10175;DHT22;18221;38.704;0.152;2022-07-23T13:11:27;30.30;99.90
10175;DHT22;18221;38.704;0.152;2022-07-23T13:13:55;30.50;99.90
10175;DHT22;18221;38.704;0.152;2022-07-23T13:16:23;30.50;99.90
10175;DHT22;18221;38.704;0.152;2022-07-23T13:18:51;30.50;99.90
10175;DHT22;18221;38.704;0.152;2022-07-23T13:21:19;30.50;99.90
10175;DHT22;18221;38.704;0.152;2022-07-23T13:23:47;30.60;99.90
10175;DHT22;18221;38.704;0.152;2022-07-23T13:26:15;30.60;99.90
10175;DHT22;18221;38.704;0.152;2022-07-23T13:28:44;30.60;99.90
10175;DHT22;18221;38.704;0.152;2022-07-23T13:31:13;30.50;99.90
10175;DHT22;18221;38.704;0.152;2022-07-23T13:33:41;30.70;99.90
10175;DHT22;18221;38.704;0.152;2022-07-23T13:36:09;30.50;99.90
10175;DHT22;18221;38.704;0.152;2022-07-23T13:38:37;30.60;99.90
10175;DHT22;18221;38.704;0.152;2022-07-23T13:41:06;30.70;99.90
10175;DHT22;18221;38.704;0.152;2022-07-23T13:43:34;30.90;99.90
10175;DHT22;18221;38.704;0.152;2022-07-23T13:46:03;30.90;99.90
10175;DHT22;18221;38.704;0.152;2022-07-23T13:48:31;31.10;99.90
10175;DHT22;18221;38.704;0.152;2022-07-23T13:50:59;31.10;99.90
10175;DHT22;18221;38.704;0.152;2022-07-23T13:53:27;31.10;99.90
10175;DHT22;18221;38.704;0.152;2022-07-23T13:55:55;31.10;99.90
10175;DHT22;18221;38.704;0.152;2022-07-23T13:58:23;31.20;99.90
10175;DHT22;18221;38.704;0.152;2022-07-23T14:00:52;31.20;99.90
10175;DHT22;18221;38.704;0.152;2022-07-23T14:03:22;31.10;99.90
10175;DHT22;18221;38.704;0.152;2022-07-23T14:05:50;31.10;99.90
10175;DHT22;18221;38.704;0.152;2022-07-23T14:08:19;31.20;99.90
10175;DHT22;18221;38.704;0.152;2022-07-23T14:10:47;31.00;99.90
10175;DHT22;18221;38.704;0.152;2022-07-23T14:13:15;30.90;99.90
10175;DHT22;18221;38.704;0.152;2022-07-23T14:15:43;30.90;99.90
10175;DHT22;18221;38.704;0.152;2022-07-23T14:18:11;31.10;99.90
10175;DHT22;18221;38.704;0.152;2022-07-23T14:20:40;31.10;99.90
10175;DHT22;18221;38.704;0.152;2022-07-23T14:23:08;31.20;99.90
10175;DHT22;18221;38.704;0.152;2022-07-23T14:25:36;31.30;99.90
10175;DHT22;18221;38.704;0.152;2022-07-23T14:28:04;31.40;99.90
10175;DHT22;18221;38.704;0.152;2022-07-23T14:30:32;31.30;99.90
10175;DHT22;18221;38.704;0.152;2022-07-23T14:33:00;31.20;99.90
10175;DHT22;18221;38.704;0.152;2022-07-23T14:35:28;31.30;99.90
10175;DHT22;18221;38.704;0.152;2022-07-23T14:37:58;31.50;99.90
10175;DHT22;18221;38.704;0.152;2022-07-23T14:40:25;31.50;99.90
10175;DHT22;18221;38.704;0.152;2022-07-23T14:42:53;31.50;99.90
10175;DHT22;18221;38.704;0.152;2022-07-23T14:45:21;31.50;99.90
10175;DHT22;18221;38.704;0.152;2022-07-23T14:47:49;31.50;99.90
10175;DHT22;18221;38.704;0.152;2022-07-23T14:50:17;31.60;99.90
10175;DHT22;18221;38.704;0.152;2022-07-23T14:52:45;31.60;99.90
10175;DHT22;18221;38.704;0.152;2022-07-23T14:55:14;31.50;99.90
10175;DHT22;18221;38.704;0.152;2022-07-23T14:57:43;31.40;99.90
10175;DHT22;18221;38.704;0.152;2022-07-23T15:00:12;31.60;99.90
10175;DHT22;18221;38.704;0.152;2022-07-23T15:02:41;31.60;99.90
10175;DHT22;18221;38.704;0.152;2022-07-23T15:05:09;31.50;99.90
10175;DHT22;18221;38.704;0.152;2022-07-23T15:07:37;31.40;99.90
10175;DHT22;18221;38.704;0.152;2022-07-23T15:10:06;31.50;99.90
10175;DHT22;18221;38.704;0.152;2022-07-23T15:12:36;31.50;99.90
10175;DHT22;18221;38.704;0.152;2022-07-23T15:15:04;31.50;99.90
10175;DHT22;18221;38.704;0.152;2022-07-23T15:17:33;31.50;99.90
10175;DHT22;18221;38.704;0.152;2022-07-23T15:20:01;31.50;99.90
10175;DHT22;18221;38.704;0.152;2022-07-23T15:22:30;31.50;99.90
10175;DHT22;18221;38.704;0.152;2022-07-23T15:24:58;31.30;99.90
10175;DHT22;18221;38.704;0.152;2022-07-23T15:27:27;31.20;99.90
10175;DHT22;18221;38.704;0.152;2022-07-23T15:29:57;31.40;99.90
10175;DHT22;18221;38.704;0.152;2022-07-23T15:32:25;31.30;99.90
10175;DHT22;18221;38.704;0.152;2022-07-23T15:34:53;31.30;99.90
10175;DHT22;18221;38.704;0.152;2022-07-23T15:37:21;31.50;99.90
10175;DHT22;18221;38.704;0.152;2022-07-23T15:39:50;31.50;99.90
10175;DHT22;18221;38.704;0.152;2022-07-23T15:42:18;31.40;99.90
10175;DHT22;18221;38.704;0.152;2022-07-23T15:44:46;31.40;99.90
10175;DHT22;18221;38.704;0.152;2022-07-23T15:47:17;31.40;99.90
10175;DHT22;18221;38.704;0.152;2022-07-23T15:49:46;31.30;99.90
10175;DHT22;18221;38.704;0.152;2022-07-23T15:52:14;31.30;99.90
10175;DHT22;18221;38.704;0.152;2022-07-23T15:54:42;31.40;99.90